• Join FlightAware (Why Join?)
  • Login
  • US Flag 
05:08AM EST


 

Airport Tracker/Info


-or-


 

Live Flight TrackerFlight Track Log ✈ PDT4425 ✈ 28-Jul-2013 ✈ KHXD - KCLT

Flight Track Log - Related Links

Times and Time Zones

All times are in EDT time to prevent confusion due to time zone crossing. See the PDT4425 flight status page for this flight to view local times or setup timezone preferences in your user account.

Time Position Orientation Groundspeed Altitude Reporting Facility
EDT Latitude Longitude Course Direction KTS MPH feet Rate Location/Type
07:58PM 32.3200 -80.6531 23° Northeast 174 200 3,100  Level Jacksonville Center
07:59PM 32.3656 -80.6297 23° Northeast 174 200 4,000 900 Climbing Jacksonville Center
08:00PM 32.4069 -80.6117 20° North 174 200 4,900 960 Climbing Jacksonville Center
08:01PM 32.4586 -80.5881 21° North 174 200 6,000 960 Climbing Jacksonville Center
08:02PM 32.5000 -80.5650 25° Northeast 174 200 6,900 1,020 Climbing Jacksonville Center
08:03PM 32.5497 -80.5414 22° Northeast 174 200 8,100 960 Climbing Jacksonville Center
08:04PM 32.5994 -80.5228 18° North 166 191 8,900 780 Climbing Jacksonville Center
08:05PM 32.6428 -80.4969 27° Northeast 182 209 9,700 780 Climbing Jacksonville Center
08:06PM 32.6925 -80.4686 26° Northeast 182 209 10,500 780 Climbing Jacksonville Center
08:07PM 32.7439 -80.4400 25° Northeast 182 209 11,300 780 Climbing Jacksonville Center
08:08PM 32.7956 -80.4139 23° Northeast 193 222 12,100 720 Climbing Jacksonville Center
08:09PM 32.8472 -80.3878 23° Northeast 193 222 12,800 600 Climbing Jacksonville Center
08:10PM 32.8947 -80.3567 29° Northeast 193 222 13,400 600 Climbing Jacksonville Center
08:11PM 32.9400 -80.3258 30° Northeast 201 231 14,000 600 Climbing Jacksonville Center
08:12PM 32.9917 -80.3019 21° North 201 231 14,700 480 Climbing Jacksonville Center
08:13PM 33.0414 -80.2758 24° Northeast 190 219 15,000 120 Climbing Jacksonville Center
08:14PM 33.1011 -80.2444 24° Northeast 195 224 15,000  Level Jacksonville Center
08:15PM 33.1592 -80.2228 17° North 210 242 15,000  Level Jacksonville Center
08:16PM 33.2169 -80.1936 23° Northeast 215 247 15,000  Level Jacksonville Center
08:17PM 33.2747 -80.1597 26° Northeast 220 253 15,000  Level Jacksonville Center
08:18PM 33.3325 -80.1331 21° North 220 253 15,000  Level Jacksonville Center
08:19PM 33.3925 -80.1039 22° Northeast 225 259 15,000  Level Jacksonville Center
08:20PM 33.4522 -80.0744 22° Northeast 225 259 15,000  Level Jacksonville Center
08:21PM 33.4978 -80.0506 24° Northeast 225 259 15,000  Level Jacksonville Center
08:22PM 33.5594 -80.0164 25° Northeast 230 265 15,000 -180 Level Jacksonville Center
08:23PM 33.6192 -79.9844 24° Northeast 230 265 14,700 -420 Descending Jacksonville Center
08:24PM 33.6833 -79.9525 23° Northeast 235 270 14,200 -540 Descending Jacksonville Center
08:25PM 33.7469 -79.9153 26° Northeast 240 276 13,700 -840 Descending Jacksonville Center
08:26PM 33.8283 -79.9175 359° North 245 282 12,600 -1,140 Descending Jacksonville Center
08:27PM 33.9017 -79.9225 357° North 256 295 11,500 -1,020 Descending Jacksonville Center
08:28PM 33.9669 -79.9453 344° North 251 289 10,600 -780 Descending Jacksonville Center
08:29PM 34.0278 -79.9608 348° North 235 270 10,000 -300 Descending Jacksonville Center
08:30PM 34.0903 -79.9664 356° North 223 257 10,000  Level Jacksonville Center
08:31PM 34.1508 -79.9667 360° North 218 251 10,100  Climbing Jacksonville Center
08:32PM 34.2128 -79.9394 20° North 218 251 10,000  Descending Jacksonville Center
08:33PM 34.2769 -79.9147 18° North 223 257 10,100  Climbing Jacksonville Center
08:35PM 34.3274 -79.9696 301° West  Level Estimated
08:39PM 34.5211 -80.1386 314° West 229 264 10,000  Level Atlanta Center
08:40PM 34.5708 -80.1919 319° Northwest 230 265 10,000  Level Atlanta Center
08:41PM 34.6206 -80.2425 320° Northwest 234 269 10,000  Level Atlanta Center
08:42PM 34.6779 -80.3225 301° West  Level FlightAware Approximate
08:42PM 34.6683 -80.3036 314° West 233 268 10,000  Level Atlanta Center
08:43PM 34.7262 -80.3660 314° West  Level FlightAware Approximate
08:43PM 34.7158 -80.3594 316° Northwest 232 267 10,000  Level Atlanta Center
08:44PM 34.7713 -80.4223 314° West  Level FlightAware Approximate
08:44PM 34.7614 -80.4208 312° West 230 265 10,000  Level Atlanta Center
08:45PM 34.8006 -80.4722 313° West 230 265 9,600 -480 Descending Atlanta Center
08:46PM 34.8569 -80.5456 313° West 241 277 9,000 -300 Descending Atlanta Center
08:47PM 34.9064 -80.5992 318° Northwest 237 273 9,000  Level Atlanta Center
08:48PM 34.9433 -80.6458 314° West 232 267 9,000  Level Atlanta Center
08:49PM 35.0069 -80.6917 329° Northwest 238 274 9,000  Level Atlanta Center
08:50PM 35.0647 -80.7400 326° Northwest 241 277 9,100  Climbing Atlanta Center
08:51PM 35.0875 -80.8178 290° West 224 258 9,000 -60 Descending Atlanta Center
08:52PM 35.0897 -80.8939 272° West 224 258 9,000  Level Atlanta Center
08:53PM 35.1439 -80.8917 North 254 292 9,000 -480 Level Atlanta Center
08:54PM 35.2178 -80.8508 24° Northeast 266 306 8,100 -1,140 Descending Atlanta Center
08:55PM 35.2800 -80.8331 13° North 262 302 6,800 -1,500 Descending Atlanta Center
08:56PM 35.3447 -80.8331 360° North 239 275 5,400 -1,440 Descending Atlanta Center
08:57PM 35.4094 -80.8383 356° North 228 262 4,100 -720 Descending Atlanta Center
08:58PM 35.4719 -80.8383 360° North 227 261 4,000 -60 Descending Atlanta Center
08:59PM 35.5367 -80.8358 North 232 267 4,000  Level Atlanta Center
09:00PM 35.5833 -80.8594 338° Northwest 178 205 4,000  Level Atlanta Center
09:01PM 35.5742 -80.9186 259° West 168 193 4,000  Level Atlanta Center
09:02PM 35.5419 -80.9556 223° Southwest 180 207 4,000  Level Atlanta Center
09:03PM 35.4900 -80.9628 186° South 186 214 4,000  Level Atlanta Center
09:04PM 35.4333 -80.9597 177° South 187 215 4,000 -120 Level Atlanta Center
09:05PM 35.3833 -80.9539 175° South 184 212 3,800 -600 Descending Atlanta Center
09:06PM 35.3331 -80.9481 175° South 182 209 2,800 -900 Descending Atlanta Center
09:07PM 35.2933 -80.9444 176° South 148 170 2,000 -720 Descending Atlanta Center
09:08PM 35.2578 -80.9433 179° South 112 129 1,400 -600 Descending Atlanta Center